N5NC CYQH-PAPG
Flight info
| Callsign | N5NC |
|---|---|
| Flight time | N/A |
| Altitude | 30000 |
| Route | YQH DCT GUDEN DCT REZTO |
| Aircraft | C525/L-SDFGRWYZ/LB1 |
Departure
| Time | 2026-04-20 21:53 |
|---|---|
| Airport | Watson Lake Airport (CYQH) |
Arrival
| Time | N/A |
|---|---|
| Airport | Petersburg James A Johnson Airport (PAPG) |
| Time | Latitude | Longitude | Altitude | Speed | Heading |
|---|---|---|---|---|---|
| 2026-04-20 21:42 | 60.11456 | -128.82352 | 2271 ft | 0 kts | 108° |
| 2026-04-20 21:50 | 60.11456 | -128.82340 | 2271 ft | 3 kts | 70° |
| 2026-04-20 21:50 | 60.11479 | -128.82248 | 2271 ft | 11 kts | 99° |
| 2026-04-20 21:51 | 60.11448 | -128.82051 | 2270 ft | 15 kts | 110° |
| 2026-04-20 21:51 | 60.11410 | -128.81834 | 2269 ft | 18 kts | 110° |
| 2026-04-20 21:51 | 60.11366 | -128.81595 | 2267 ft | 18 kts | 109° |
| 2026-04-20 21:51 | 60.11322 | -128.81332 | 2265 ft | 19 kts | 100° |
| 2026-04-20 21:52 | 60.11335 | -128.81045 | 2263 ft | 22 kts | 81° |
| 2026-04-20 21:52 | 60.11410 | -128.80937 | 2263 ft | 18 kts | 289° |
| 2026-04-20 21:52 | 60.11520 | -128.81546 | 2268 ft | 76 kts | 289° |
| 2026-04-20 21:52 | 60.11744 | -128.82809 | 2453 ft | 104 kts | 289° |
| 2026-04-20 21:53 | 60.11974 | -128.84146 | 2935 ft | 108 kts | 286° |
| 2026-04-20 21:53 | 60.12077 | -128.85796 | 3251 ft | 131 kts | 258° |
| 2026-04-20 21:53 | 60.11359 | -128.87207 | 3526 ft | 170 kts | 211° |
| 2026-04-20 21:53 | 60.10057 | -128.87293 | 3960 ft | 197 kts | 178° |
| 2026-04-20 21:54 | 60.08713 | -128.87010 | 4506 ft | 192 kts | 198° |
| 2026-04-20 21:54 | 60.07529 | -128.87930 | 5151 ft | 184 kts | 215° |
| 2026-04-20 21:54 | 60.06429 | -128.89188 | 5793 ft | 183 kts | 219° |
| 2026-04-20 21:54 | 60.05356 | -128.90547 | 6417 ft | 184 kts | 220° |
| 2026-04-20 21:55 | 60.04293 | -128.91939 | 7068 ft | 185 kts | 221° |
| 2026-04-20 21:55 | 60.03228 | -128.93356 | 7661 ft | 187 kts | 221° |
| 2026-04-20 21:55 | 60.02145 | -128.94814 | 8280 ft | 188 kts | 221° |
| 2026-04-20 21:55 | 60.01052 | -128.96292 | 8824 ft | 194 kts | 221° |
| 2026-04-20 21:56 | 59.99931 | -128.97818 | 9351 ft | 201 kts | 221° |
| 2026-04-20 21:56 | 59.98766 | -128.99405 | 9878 ft | 207 kts | 221° |
| 2026-04-20 21:56 | 59.97566 | -129.01042 | 10407 ft | 213 kts | 220° |
| 2026-04-20 21:56 | 59.96330 | -129.02728 | 10934 ft | 218 kts | 220° |
| 2026-04-20 21:57 | 59.95077 | -129.04436 | 11460 ft | 223 kts | 220° |
| 2026-04-20 21:57 | 59.93790 | -129.06189 | 11994 ft | 227 kts | 220° |
| 2026-04-20 21:57 | 59.92471 | -129.07985 | 12528 ft | 231 kts | 220° |
| 2026-04-20 21:57 | 59.91153 | -129.09779 | 13047 ft | 234 kts | 219° |
| 2026-04-20 21:58 | 59.89800 | -129.11618 | 13577 ft | 237 kts | 219° |
| 2026-04-20 21:58 | 59.88434 | -129.13475 | 14110 ft | 239 kts | 219° |
| 2026-04-20 21:58 | 59.87045 | -129.15359 | 14644 ft | 242 kts | 219° |
| 2026-04-20 21:58 | 59.85657 | -129.17242 | 15165 ft | 244 kts | 219° |
| 2026-04-20 21:59 | 59.84261 | -129.19135 | 15685 ft | 246 kts | 220° |
| 2026-04-20 21:59 | 59.82852 | -129.21042 | 16211 ft | 246 kts | 220° |
| 2026-04-20 21:59 | 59.81452 | -129.22935 | 16719 ft | 247 kts | 221° |
| 2026-04-20 21:59 | 59.80039 | -129.24844 | 17234 ft | 247 kts | 221° |
| 2026-04-20 22:00 | 59.78614 | -129.26769 | 17767 ft | 246 kts | 221° |
| 2026-04-20 22:00 | 59.77210 | -129.28661 | 18278 ft | 245 kts | 222° |
| 2026-04-20 22:00 | 59.75807 | -129.30551 | 18793 ft | 245 kts | 223° |
| 2026-04-20 22:00 | 59.74417 | -129.32420 | 19313 ft | 244 kts | 223° |
| 2026-04-20 22:01 | 59.73029 | -129.34286 | 19846 ft | 242 kts | 223° |
| 2026-04-20 22:01 | 59.71644 | -129.36148 | 20379 ft | 241 kts | 223° |
| 2026-04-20 22:01 | 59.70268 | -129.37996 | 20808 ft | 243 kts | 223° |
| 2026-04-20 22:01 | 59.68881 | -129.39857 | 21281 ft | 243 kts | 223° |
| 2026-04-20 22:02 | 59.67485 | -129.41730 | 21707 ft | 244 kts | 224° |
| 2026-04-20 22:02 | 59.66072 | -129.43622 | 22159 ft | 245 kts | 223° |
| 2026-04-20 22:02 | 59.64684 | -129.45479 | 22594 ft | 245 kts | 224° |
| 2026-04-20 22:02 | 59.63277 | -129.47359 | 23001 ft | 246 kts | 223° |
| 2026-04-20 22:03 | 59.61852 | -129.49263 | 23427 ft | 247 kts | 224° |
| 2026-04-20 22:03 | 59.60436 | -129.51149 | 23762 ft | 250 kts | 224° |
| 2026-04-20 22:03 | 59.59005 | -129.53055 | 24213 ft | 249 kts | 224° |
| 2026-04-20 22:03 | 59.57563 | -129.54977 | 24534 ft | 252 kts | 224° |
| 2026-04-20 22:04 | 59.56103 | -129.56917 | 24903 ft | 253 kts | 224° |
| 2026-04-20 22:04 | 59.54662 | -129.58827 | 25307 ft | 252 kts | 224° |
| 2026-04-20 22:04 | 59.53203 | -129.60765 | 25560 ft | 257 kts | 224° |
| 2026-04-20 22:04 | 59.51730 | -129.62715 | 25969 ft | 256 kts | 224° |
| 2026-04-20 22:05 | 59.50249 | -129.64676 | 26253 ft | 258 kts | 224° |
| 2026-04-20 22:05 | 59.48739 | -129.66672 | 26539 ft | 261 kts | 223° |
| 2026-04-20 22:05 | 59.47242 | -129.68646 | 26908 ft | 260 kts | 223° |
| 2026-04-20 22:05 | 59.45744 | -129.70627 | 27137 ft | 264 kts | 223° |
| 2026-04-20 22:06 | 59.44208 | -129.72650 | 27390 ft | 267 kts | 223° |
| 2026-04-20 22:06 | 59.42664 | -129.74684 | 27643 ft | 269 kts | 223° |
| 2026-04-20 22:06 | 59.41095 | -129.76747 | 27897 ft | 271 kts | 223° |
| 2026-04-20 22:06 | 59.39531 | -129.78801 | 28150 ft | 273 kts | 223° |
| 2026-04-20 22:07 | 59.37972 | -129.80844 | 28399 ft | 274 kts | 223° |
| 2026-04-20 22:07 | 59.36383 | -129.82925 | 28621 ft | 276 kts | 223° |
| 2026-04-20 22:07 | 59.34792 | -129.85005 | 28840 ft | 277 kts | 222° |
| 2026-04-20 22:07 | 59.33189 | -129.87100 | 29058 ft | 277 kts | 223° |
| 2026-04-20 22:08 | 59.31589 | -129.89188 | 29277 ft | 278 kts | 222° |
| 2026-04-20 22:08 | 59.29984 | -129.91278 | 29495 ft | 278 kts | 222° |
| 2026-04-20 22:08 | 59.28386 | -129.93361 | 29638 ft | 281 kts | 222° |
| 2026-04-20 22:08 | 59.26741 | -129.95508 | 29671 ft | 288 kts | 222° |
| 2026-04-20 22:09 | 59.25057 | -129.97705 | 29679 ft | 295 kts | 222° |
| 2026-04-20 22:09 | 59.21603 | -130.02318 | 29687 ft | 307 kts | 224° |
| 2026-04-20 22:10 | 59.18111 | -130.07280 | 29706 ft | 317 kts | 224° |
| 2026-04-20 22:10 | 59.14503 | -130.12402 | 29723 ft | 326 kts | 224° |
| 2026-04-20 22:11 | 59.10804 | -130.17625 | 29735 ft | 333 kts | 223° |
| 2026-04-20 22:11 | 59.07042 | -130.22916 | 29755 ft | 338 kts | 224° |
| 2026-04-20 22:12 | 59.03223 | -130.28267 | 29757 ft | 342 kts | 223° |
| 2026-04-20 22:12 | 58.99340 | -130.33690 | 29758 ft | 345 kts | 223° |
| 2026-04-20 22:13 | 58.95441 | -130.39117 | 29744 ft | 348 kts | 224° |
| 2026-04-20 22:13 | 58.91535 | -130.44542 | 29732 ft | 347 kts | 223° |
| 2026-04-20 22:14 | 58.87611 | -130.49973 | 29719 ft | 346 kts | 223° |
| 2026-04-20 22:14 | 58.83672 | -130.55408 | 29714 ft | 344 kts | 223° |
| 2026-04-20 22:15 | 58.79795 | -130.60747 | 29720 ft | 342 kts | 223° |
| 2026-04-20 22:15 | 58.75938 | -130.66045 | 29725 ft | 341 kts | 223° |
| 2026-04-20 22:16 | 58.72061 | -130.71353 | 29733 ft | 341 kts | 223° |
| 2026-04-20 22:16 | 58.68222 | -130.76598 | 29747 ft | 342 kts | 223° |
| 2026-04-20 22:17 | 58.64342 | -130.81883 | 29762 ft | 343 kts | 223° |
| 2026-04-20 22:17 | 58.60453 | -130.87166 | 29754 ft | 344 kts | 223° |
| 2026-04-20 22:18 | 58.56560 | -130.92439 | 29757 ft | 345 kts | 223° |
| 2026-04-20 22:18 | 58.52632 | -130.97743 | 29764 ft | 346 kts | 223° |
| 2026-04-20 22:19 | 58.48704 | -131.03033 | 29756 ft | 347 kts | 223° |
| 2026-04-20 22:19 | 58.44770 | -131.08318 | 29756 ft | 347 kts | 223° |
| 2026-04-20 22:20 | 58.40834 | -131.13588 | 29753 ft | 348 kts | 223° |
| 2026-04-20 22:20 | 58.36897 | -131.18843 | 29740 ft | 348 kts | 223° |
| 2026-04-20 22:21 | 58.32930 | -131.24127 | 29753 ft | 348 kts | 223° |
| 2026-04-20 22:21 | 58.28986 | -131.29366 | 29750 ft | 348 kts | 223° |
| 2026-04-20 22:22 | 58.25047 | -131.34581 | 29753 ft | 347 kts | 223° |
| 2026-04-20 22:22 | 58.21101 | -131.39793 | 29755 ft | 346 kts | 223° |
| 2026-04-20 22:23 | 58.17157 | -131.44986 | 29771 ft | 345 kts | 223° |
| 2026-04-20 22:23 | 58.13216 | -131.50163 | 29771 ft | 345 kts | 223° |
| 2026-04-20 22:24 | 58.09308 | -131.55281 | 29766 ft | 345 kts | 223° |
| 2026-04-20 22:24 | 58.05357 | -131.60446 | 29521 ft | 347 kts | 223° |
| 2026-04-20 22:24 | 58.03375 | -131.63031 | 29186 ft | 346 kts | 223° |
| 2026-04-20 22:25 | 58.01425 | -131.65567 | 28802 ft | 344 kts | 222° |
| 2026-04-20 22:25 | 57.99464 | -131.68114 | 28412 ft | 342 kts | 222° |
| 2026-04-20 22:25 | 57.97499 | -131.70665 | 28021 ft | 341 kts | 223° |
| 2026-04-20 22:25 | 57.95567 | -131.73171 | 27636 ft | 339 kts | 223° |
| 2026-04-20 22:26 | 57.93650 | -131.75650 | 27257 ft | 337 kts | 223° |
| 2026-04-20 22:26 | 57.91709 | -131.78159 | 26870 ft | 335 kts | 223° |
| 2026-04-20 22:26 | 57.89795 | -131.80632 | 26489 ft | 334 kts | 223° |
| 2026-04-20 22:27 | 57.85984 | -131.85544 | 25712 ft | 332 kts | 223° |
| 2026-04-20 22:27 | 57.84088 | -131.87984 | 25306 ft | 332 kts | 223° |
| 2026-04-20 22:27 | 57.82177 | -131.90439 | 24915 ft | 331 kts | 223° |
| 2026-04-20 22:27 | 57.80311 | -131.92835 | 24522 ft | 330 kts | 223° |
| 2026-04-20 22:28 | 57.78417 | -131.95261 | 24101 ft | 329 kts | 223° |
| 2026-04-20 22:28 | 57.76540 | -131.97662 | 23669 ft | 328 kts | 223° |
| 2026-04-20 22:28 | 57.74655 | -132.00075 | 23232 ft | 328 kts | 223° |
| 2026-04-20 22:28 | 57.72802 | -132.02437 | 22765 ft | 325 kts | 223° |
| 2026-04-20 22:29 | 57.70950 | -132.04797 | 22300 ft | 321 kts | 223° |
| 2026-04-20 22:29 | 57.69111 | -132.07136 | 21866 ft | 318 kts | 223° |
| 2026-04-20 22:29 | 57.67317 | -132.09415 | 21433 ft | 315 kts | 223° |
| 2026-04-20 22:29 | 57.65503 | -132.11719 | 20996 ft | 312 kts | 223° |
| 2026-04-20 22:30 | 57.63741 | -132.13956 | 20577 ft | 310 kts | 223° |
| 2026-04-20 22:30 | 57.61970 | -132.16199 | 20174 ft | 307 kts | 223° |
| 2026-04-20 22:30 | 57.60200 | -132.18439 | 19770 ft | 305 kts | 223° |
| 2026-04-20 22:30 | 57.58464 | -132.20634 | 19373 ft | 303 kts | 223° |
| 2026-04-20 22:31 | 57.56726 | -132.22829 | 18999 ft | 301 kts | 223° |
| 2026-04-20 22:31 | 57.55027 | -132.24971 | 18637 ft | 299 kts | 223° |
| 2026-04-20 22:31 | 57.53303 | -132.27144 | 18268 ft | 297 kts | 223° |
| 2026-04-20 22:31 | 57.51606 | -132.29280 | 17915 ft | 296 kts | 223° |
| 2026-04-20 22:32 | 57.49904 | -132.31421 | 17555 ft | 294 kts | 223° |
| 2026-04-20 22:32 | 57.48214 | -132.33543 | 17154 ft | 294 kts | 223° |
| 2026-04-20 22:32 | 57.46545 | -132.35637 | 16775 ft | 293 kts | 223° |
| 2026-04-20 22:32 | 57.44857 | -132.37753 | 16380 ft | 293 kts | 223° |
| 2026-04-20 22:33 | 57.43175 | -132.39859 | 15997 ft | 291 kts | 222° |
| 2026-04-20 22:33 | 57.41521 | -132.41925 | 15601 ft | 289 kts | 223° |
| 2026-04-20 22:33 | 57.39855 | -132.44003 | 15215 ft | 288 kts | 222° |
| 2026-04-20 22:33 | 57.38203 | -132.46063 | 14823 ft | 287 kts | 222° |
| 2026-04-20 22:34 | 57.36553 | -132.48119 | 14429 ft | 285 kts | 222° |
| 2026-04-20 22:34 | 57.34917 | -132.50154 | 14052 ft | 284 kts | 222° |
| 2026-04-20 22:34 | 57.33291 | -132.52176 | 13673 ft | 282 kts | 221° |
| 2026-04-20 22:34 | 57.31684 | -132.54170 | 13292 ft | 280 kts | 221° |
| 2026-04-20 22:35 | 57.30070 | -132.56172 | 12912 ft | 278 kts | 221° |
| 2026-04-20 22:35 | 57.28499 | -132.58115 | 12770 ft | 268 kts | 221° |
| 2026-04-20 22:35 | 57.26987 | -132.59976 | 12745 ft | 254 kts | 222° |
| 2026-04-20 22:35 | 57.25553 | -132.61739 | 12757 ft | 241 kts | 222° |
| 2026-04-20 22:36 | 57.24212 | -132.63388 | 12768 ft | 230 kts | 223° |
| 2026-04-20 22:36 | 57.22903 | -132.64999 | 12782 ft | 220 kts | 223° |
| 2026-04-20 22:36 | 57.21653 | -132.66540 | 12800 ft | 213 kts | 222° |
| 2026-04-20 22:36 | 57.20449 | -132.68025 | 12811 ft | 206 kts | 223° |
| 2026-04-20 22:37 | 57.19266 | -132.69484 | 12823 ft | 200 kts | 223° |
| 2026-04-20 22:37 | 57.18126 | -132.70889 | 12822 ft | 196 kts | 223° |
| 2026-04-20 22:37 | 57.17005 | -132.72272 | 12833 ft | 193 kts | 223° |
| 2026-04-20 22:37 | 57.15890 | -132.73647 | 12848 ft | 191 kts | 224° |
| 2026-04-20 22:38 | 57.14799 | -132.74992 | 12860 ft | 190 kts | 223° |
| 2026-04-20 22:38 | 57.13698 | -132.76350 | 12869 ft | 192 kts | 224° |
| 2026-04-20 22:38 | 57.12579 | -132.77728 | 12866 ft | 194 kts | 223° |
| 2026-04-20 22:38 | 57.11467 | -132.79095 | 12877 ft | 195 kts | 223° |
| 2026-04-20 22:39 | 57.10331 | -132.80492 | 12907 ft | 198 kts | 223° |
| 2026-04-20 22:39 | 57.09175 | -132.81909 | 12910 ft | 200 kts | 223° |
| 2026-04-20 22:39 | 57.08027 | -132.83315 | 12901 ft | 201 kts | 223° |
| 2026-04-20 22:39 | 57.06855 | -132.84747 | 12915 ft | 202 kts | 223° |
| 2026-04-20 22:40 | 57.05689 | -132.86169 | 12924 ft | 204 kts | 223° |
| 2026-04-20 22:40 | 57.04491 | -132.87630 | 12937 ft | 205 kts | 223° |
| 2026-04-20 22:40 | 57.03307 | -132.89073 | 12942 ft | 206 kts | 224° |
| 2026-04-20 22:40 | 57.02117 | -132.90515 | 12938 ft | 207 kts | 223° |
| 2026-04-20 22:41 | 57.00903 | -132.91948 | 12950 ft | 208 kts | 223° |